Flight Track Log - Related Links

Times and Time Zones

All times are in EST time to prevent confusion due to time zone crossing. See the CPT8773 flight status page for this flight to view local times or setup timezone preferences in your user account.

Time Position Orientation Groundspeed Altitude Reporting Facility
EST Latitude Longitude Course Direction KTS MPH feet Rate Location/Type
10:26AM 42.9858 -106.4822 352° North 116 133 8,400  Level Denver Center
10:27AM 43.0139 -106.5006 334° Northwest 118 136 9,300 878 Climbing Denver Center
10:28AM 43.0436 -106.5244 330° Northwest 115 132 10,200 780 Climbing Denver Center
10:29AM 43.0681 -106.5494 323° Northwest 115 132 10,900 732 Climbing Denver Center
10:30AM 43.0729 -106.7159 307° West  Level Estimated
10:30AM 43.0981 -106.5750 328° Northwest 114 131 11,700  Level Denver Center
10:31AM 43.1137 -106.7234 352° North  Level FlightAware Approximate
10:31AM 43.1253 -106.5958 331° Northwest 116 133 12,100  Level Denver Center
10:32AM 43.1578 -106.6219 330° Northwest 136 157 12,100  Level Denver Center
10:33AM 43.1969 -106.6514 331° Northwest 143 165 12,100  Level Denver Center
10:34AM 43.2294 -106.6803 327° Northwest 145 167 12,100 -50 Level Salt Lake Center
10:35AM 43.2622 -106.7058 330° Northwest 144 166 12,000 -98 Descending Salt Lake Center
10:36AM 43.3044 -106.7342 334° Northwest 149 171 11,900 -49 Descending Salt Lake Center
10:37AM 43.3381 -106.7578 333° Northwest 145 167 11,900  Level Salt Lake Center
10:38AM 43.3647 -106.7961 314° West 144 166 11,900  Level Salt Lake Center
10:39AM 43.3889 -106.8478 303° West 144 166 11,900  Level Salt Lake Center
10:40AM 43.4100 -106.8936 302° West 146 168 11,900  Level Salt Lake Center
10:41AM 43.4344 -106.9389 307° West 146 168 11,900 98 Level Salt Lake Center
10:42AM 43.4594 -106.9842 307° West 148 170 12,100 49 Climbing Salt Lake Center
10:43AM 43.4828 -107.0294 305° West 146 168 12,000 -49 Descending Salt Lake Center
10:44AM 43.5072 -107.0725 308° West 144 166 12,000  Level Salt Lake Center
10:45AM 43.5300 -107.1192 304° West 147 169 12,000  Level Salt Lake Center
10:46AM 43.5578 -107.1733 305° West 145 167 12,000  Level Salt Lake Center
10:47AM 43.5817 -107.2144 309° West 142 163 12,000 49 Level Salt Lake Center
10:48AM 43.6050 -107.2583 306° West 141 162 12,100  Climbing Salt Lake Center
10:49AM 43.6275 -107.3028 305° West 141 162 12,000 -49 Descending Salt Lake Center
10:50AM 43.6511 -107.3458 307° West 142 163 12,000 49 Level Salt Lake Center
10:51AM 43.6728 -107.3919 303° West 141 162 12,100 49 Climbing Salt Lake Center
10:52AM 43.6972 -107.4386 306° West 145 167 12,100 -49 Level Salt Lake Center
10:53AM 43.7206 -107.4833 306° West 145 167 12,000  Descending Salt Lake Center
10:54AM 43.7472 -107.5378 304° West 144 166 12,100 49 Climbing Salt Lake Center
10:55AM 43.7708 -107.5822 306° West 143 165 12,100 -49 Level Salt Lake Center
10:56AM 43.7933 -107.6267 305° West 143 165 12,000  Descending Salt Lake Center
10:57AM 43.8164 -107.6714 306° West 142 163 12,100  Climbing Salt Lake Center
10:58AM 43.8394 -107.7153 306° West 142 163 12,000  Descending Salt Lake Center
10:59AM 43.8619 -107.7583 306° West 141 162 12,100 49 Climbing Salt Lake Center
11:00AM 43.8847 -107.8044 304° West 142 163 12,100  Level Salt Lake Center
11:01AM 43.9092 -107.8506 306° West 144 166 12,100  Level Salt Lake Center
11:02AM 43.9322 -107.8964 305° West 145 167 12,100  Level Salt Lake Center
11:04AM 43.9625 -107.9478 309° West 145 167 12,100  Level Salt Lake Center
11:05AM 43.9936 -107.9833 321° Northwest 145 167 12,100 -49 Level Salt Lake Center
11:06AM 44.0253 -108.0172 322° Northwest 145 167 12,000 -49 Descending Salt Lake Center
11:07AM 44.0553 -108.0528 320° Northwest 144 166 12,000  Level Salt Lake Center
11:08AM 44.0858 -108.0883 320° Northwest 143 165 12,000  Level Salt Lake Center
11:09AM 44.1156 -108.1250 318° Northwest 143 165 12,000  Level Salt Lake Center
11:10AM 44.1464 -108.1606 320° Northwest 143 165 12,000 -48 Level Salt Lake Center
11:11AM 44.1767 -108.1956 320° Northwest 142 163 11,900  Descending Salt Lake Center
11:12AM 44.2133 -108.2403 319° Northwest 144 166 12,000 49 Climbing Salt Lake Center
11:13AM 44.2447 -108.2761 321° Northwest 145 167 12,000  Level Salt Lake Center
11:14AM 44.2758 -108.3142 319° Northwest 146 168 12,000  Level Salt Lake Center
11:15AM 44.3064 -108.3503 320° Northwest 146 168 12,000  Level Salt Lake Center
11:16AM 44.3381 -108.3875 320° Northwest 147 169 12,000  Level Salt Lake Center
11:17AM 44.3689 -108.4244 319° Northwest 147 169 12,000 -146 Level Salt Lake Center
11:18AM 44.4006 -108.4619 320° Northwest 147 169 11,700 -439 Descending Salt Lake Center
11:19AM 44.4339 -108.5022 319° Northwest 151 174 11,100 -683 Descending Salt Lake Center
11:20AM 44.4750 -108.5503 320° Northwest 157 181 10,300 -629 Descending Salt Lake Center
11:21AM 44.5083 -108.5914 319° Northwest 158 182 9,800 -537 Descending Salt Lake Center
11:22AM 44.5417 -108.6297 321° Northwest 158 182 9,200 -341 Descending Salt Lake Center
11:23AM 44.5714 -108.6664 319° Northwest 152 175 9,100 -339 Descending Salt Lake Center
11:24AM 44.5997 -108.6983 321° Northwest 142 163 8,500 -488 Descending Salt Lake Center
11:25AM 44.6311 -108.7300 324° Northwest 139 160 8,100 -195 Descending Salt Lake Center
11:26AM 44.6606 -108.7633 321° Northwest 138 159 8,100 -242 Level Salt Lake Center
11:27AM 44.6439 -108.8169 246° West 149 171 7,600 -290 Descending Salt Lake Center
11:28AM 44.6075 -108.8703 226° Southwest 156 180 7,500 -146 Descending Salt Lake Center
11:29AM 44.5831 -108.9122 231° Southwest 151 174 7,300 -197 Descending Salt Lake Center

Login

Don't have an account? Register now (free) for customized features, flight alerts, and more!